This is the latest recevied weather packets stored in our database for station/object SV4JYD-13. If no packets are shown the sender has not sent any weather packets the latest 10 day(s).
| Time | Temp. | Humidity | Pressure | Rain* | Wind** | Luminosity | Snow |
|---|---|---|---|---|---|---|---|
| 1777204552 | 23.33° C | 46% | 1015 hPa | 0 mm | - | - | - |
| 1777203652 | 23.33° C | 48% | 1015 hPa | 0 mm | - | - | - |
| 1777202752 | 22.78° C | 49% | 1015 hPa | 0 mm | - | - | - |
| 1777201852 | 22.78° C | 51% | 1015 hPa | 0 mm | - | - | - |
| 1777200951 | 22.22° C | 53% | 1015 hPa | 0 mm | - | - | - |
| 1777200051 | 22.22° C | 54% | 1015 hPa | 0 mm | - | - | - |
| 1777199151 | 22.22° C | 56% | 1015 hPa | 0 mm | - | - | - |
| 1777198251 | 21.67° C | 57% | 1015 hPa | 0 mm | - | - | - |
| 1777197350 | 22.78° C | 64% | 1015 hPa | 0 mm | - | - | - |
| 1777196450 | 22.22° C | 64% | 1015 hPa | 0 mm | - | - | - |
| 1777195550 | 22.22° C | 65% | 1015 hPa | 0 mm | - | - | - |
| 1777194649 | 21.67° C | 68% | 1015 hPa | 0 mm | - | - | - |
| 1777193749 | 21.11° C | 75% | 1015 hPa | 0 mm | - | - | - |
| 1777192849 | 18.89° C | 10% | - | 0 mm | - | - | - |
| 1777191949 | 18.89° C | 10% | - | 0 mm | - | - | - |
| 1777191048 | 18.89° C | 10% | - | 0 mm | - | - | - |
| 1777190148 | 19.44° C | 10% | - | 0 mm | - | - | - |
| 1777189248 | 16.67° C | 87% | 1016 hPa | 0 mm | - | - | - |
| 1777188348 | 16.67° C | 83% | 1016 hPa | 0 mm | - | - | - |
| 1777187447 | 16.67° C | 78% | 1016 hPa | 0 mm | - | - | - |
| 1777186547 | 17.22° C | 72% | 1016 hPa | 0 mm | - | - | - |
| 1777185647 | 17.78° C | 64% | 1016 hPa | 0 mm | - | - | - |
| 1777184747 | 17.78° C | 64% | 1016 hPa | 0 mm | - | - | - |
| 1777183847 | 17.78° C | 65% | 1016 hPa | 0 mm | - | - | - |
| 1777182946 | 13.33° C | 10% | - | 0 mm | - | - | - |
* Rain latest hour (hover to see other rain measurements)
** Current wind speed in m/s (hover to see current wind gust speed)